CFG1LJ EDDH-LGKL
Flight info
| Callsign | CFG1LJ |
|---|---|
| Flight time | N/A |
| Altitude | 37000 |
| Route | AMLUH3B AMLUH M852 DENIX DCT ZUCKA DCT ARMUT DCT LAMSI DCT MAGAM DCT PETAK DCT PITAS UN732 KRK UA14 ARA UL612 TRL J61 IPTAG |
| Aircraft | A321/M-SDE3FGHIJ1J4J7LORVWXYZ/SB1B2D1G1 |
Departure
| Time | 2026-05-01 12:46 |
|---|---|
| Airport | Hamburg Helmut Schmidt Airport (EDDH) |
Arrival
| Time | N/A |
|---|---|
| Airport | Kalamata Airport (LGKL) |
| Time | Latitude | Longitude | Altitude | Speed | Heading |
|---|---|---|---|---|---|
| 2026-05-01 12:13 | 53.63074 | 10.00369 | 49 ft | 0 kts | 93° |
| 2026-05-01 12:40 | 53.63074 | 10.00353 | 48 ft | 4 kts | 93° |
| 2026-05-01 12:41 | 53.63076 | 10.00315 | 48 ft | 2 kts | 93° |
| 2026-05-01 12:41 | 53.63073 | 10.00275 | 47 ft | 4 kts | 53° |
| 2026-05-01 12:41 | 53.63054 | 10.00247 | 46 ft | 3 kts | 32° |
| 2026-05-01 12:41 | 53.63051 | 10.00245 | 46 ft | 0 kts | 33° |
| 2026-05-01 12:43 | 53.63066 | 10.00258 | 47 ft | 7 kts | 21° |
| 2026-05-01 12:43 | 53.63080 | 10.00260 | 47 ft | 0 kts | 1° |
| 2026-05-01 12:44 | 53.63109 | 10.00260 | 48 ft | 9 kts | 358° |
| 2026-05-01 12:44 | 53.63195 | 10.00250 | 48 ft | 13 kts | 356° |
| 2026-05-01 12:44 | 53.63349 | 10.00232 | 48 ft | 10 kts | 356° |
| 2026-05-01 12:45 | 53.63469 | 10.00209 | 48 ft | 11 kts | 335° |
| 2026-05-01 12:45 | 53.63549 | 10.00097 | 50 ft | 18 kts | 319° |
| 2026-05-01 12:45 | 53.63577 | 9.99917 | 51 ft | 23 kts | 232° |
| 2026-05-01 12:46 | 53.63332 | 9.99419 | 47 ft | 89 kts | 230° |
| 2026-05-01 12:46 | 53.62818 | 9.98382 | 44 ft | 142 kts | 230° |
| 2026-05-01 12:46 | 53.62102 | 9.96920 | 170 ft | 172 kts | 229° |
| 2026-05-01 12:46 | 53.61373 | 9.95360 | 883 ft | 168 kts | 231° |
| 2026-05-01 12:47 | 53.60671 | 9.93805 | 1581 ft | 167 kts | 227° |
| 2026-05-01 12:47 | 53.59904 | 9.92233 | 1944 ft | 184 kts | 225° |
| 2026-05-01 12:47 | 53.59028 | 9.90497 | 2202 ft | 205 kts | 228° |
| 2026-05-01 12:47 | 53.58080 | 9.88610 | 2544 ft | 215 kts | 227° |
| 2026-05-01 12:48 | 53.57031 | 9.86802 | 3069 ft | 216 kts | 210° |
| 2026-05-01 12:48 | 53.55619 | 9.86113 | 3650 ft | 214 kts | 176° |
| 2026-05-01 12:48 | 53.54234 | 9.86916 | 4168 ft | 214 kts | 142° |
| 2026-05-01 12:48 | 53.53117 | 9.88573 | 4818 ft | 213 kts | 138° |
| 2026-05-01 12:49 | 53.52104 | 9.90377 | 5425 ft | 214 kts | 125° |
| 2026-05-01 12:49 | 53.51509 | 9.92709 | 5878 ft | 227 kts | 104° |
| 2026-05-01 12:49 | 53.51327 | 9.95491 | 6081 ft | 251 kts | 102° |
| 2026-05-01 12:49 | 53.50561 | 9.98136 | 6514 ft | 259 kts | 137° |
| 2026-05-01 12:50 | 53.48987 | 9.99577 | 7116 ft | 263 kts | 163° |
| 2026-05-01 12:50 | 53.47205 | 10.00342 | 7799 ft | 266 kts | 166° |
| 2026-05-01 12:50 | 53.45393 | 10.01043 | 8516 ft | 268 kts | 166° |
| 2026-05-01 12:50 | 53.43595 | 10.01782 | 9229 ft | 270 kts | 165° |
| 2026-05-01 12:51 | 53.41771 | 10.02600 | 9915 ft | 272 kts | 163° |
| 2026-05-01 12:51 | 53.39943 | 10.03477 | 10583 ft | 275 kts | 162° |
| 2026-05-01 12:51 | 53.36008 | 10.05473 | 10910 ft | 317 kts | 162° |
| 2026-05-01 12:52 | 53.33833 | 10.06603 | 11041 ft | 337 kts | 162° |